createdAt,value
2023-04-13T00:00:50.623Z,10.83
2023-04-13T00:05:54.857Z,10.72
2023-04-13T00:10:59.905Z,10.83
2023-04-13T00:16:02.829Z,10.63
2023-04-13T00:21:06.195Z,10.68
2023-04-13T00:26:10.426Z,10.70
2023-04-13T00:31:13.340Z,10.73
2023-04-13T00:36:16.729Z,10.79
2023-04-13T00:41:21.097Z,10.78
2023-04-13T00:46:24.315Z,10.70
2023-04-13T00:51:27.580Z,10.75
2023-04-13T00:56:33.761Z,10.60
2023-04-13T01:01:46.847Z,10.75
2023-04-13T01:06:57.394Z,10.53
2023-04-13T01:12:11.519Z,10.52
2023-04-13T01:17:21.707Z,10.39
2023-04-13T01:22:29.571Z,10.42
2023-04-13T01:27:44.129Z,10.43
2023-04-13T01:32:47.385Z,10.40
2023-04-13T01:37:51.684Z,10.21
2023-04-13T01:42:58.529Z,10.37
2023-04-13T01:48:13.138Z,10.23
2023-04-13T01:53:36.820Z,10.27
2023-04-13T01:58:42.690Z,10.38
2023-04-13T02:03:50.565Z,10.23
2023-04-13T02:08:53.574Z,10.36
2023-04-13T02:13:58.934Z,10.29
2023-04-13T02:19:02.118Z,10.33
2023-04-13T02:24:05.917Z,10.34
2023-04-13T02:29:10.242Z,10.37
2023-04-13T02:34:13.316Z,10.26
2023-04-13T02:39:18.273Z,10.21
2023-04-13T02:44:22.996Z,10.32
2023-04-13T02:49:32.943Z,10.21
2023-04-13T02:54:54.613Z,10.23
2023-04-13T03:00:07.625Z,10.24
2023-04-13T03:05:19.819Z,10.17
2023-04-13T03:10:24.094Z,10.09
2023-04-13T03:15:29.253Z,10.04
2023-04-13T03:20:32.428Z,10.02
2023-04-13T03:25:37.749Z,10.00
2023-04-13T03:30:42.137Z,9.93
2023-04-13T03:35:45.514Z,9.84
2023-04-13T03:40:57.656Z,9.78
2023-04-13T03:46:04.726Z,9.82
2023-04-13T03:51:08.921Z,9.72
2023-04-13T03:56:23.421Z,9.71
2023-04-13T04:01:28.362Z,9.63
2023-04-13T04:06:32.218Z,9.62
2023-04-13T04:12:01.526Z,9.64
2023-04-13T04:17:16.564Z,9.67
2023-04-13T04:22:19.987Z,9.63
2023-04-13T04:27:25.731Z,9.54
2023-04-13T04:32:33.868Z,9.77
2023-04-13T04:37:41.672Z,9.63
2023-04-13T04:42:49.364Z,9.68
2023-04-13T04:48:09.474Z,9.54
2023-04-13T04:53:12.656Z,9.54
2023-04-13T04:58:16.756Z,9.57
2023-04-13T05:03:24.910Z,9.53
2023-04-13T05:08:38.816Z,9.59
2023-04-13T05:13:43.168Z,9.58
2023-04-13T05:19:01.221Z,9.60
2023-04-13T05:24:40.317Z,9.55
2023-04-13T05:29:47.956Z,9.35
2023-04-13T05:34:56.668Z,9.48
2023-04-13T05:40:02.557Z,9.43
2023-04-13T05:45:10.598Z,9.34
2023-04-13T05:50:25.768Z,9.39
2023-04-13T05:55:29.887Z,9.32
2023-04-13T06:00:39.986Z,9.27
2023-04-13T06:05:49.570Z,9.27
2023-04-13T06:10:52.535Z,9.22
2023-04-13T06:15:55.498Z,9.26
2023-04-13T06:21:00.009Z,9.20
2023-04-13T06:26:05.089Z,9.27
2023-04-13T06:31:23.415Z,9.33
2023-04-13T06:36:29.478Z,9.21
2023-04-13T06:41:34.306Z,9.24
2023-04-13T06:46:56.590Z,9.23
2023-04-13T06:52:02.660Z,9.46
2023-04-13T06:57:05.841Z,9.40
2023-04-13T07:02:09.753Z,9.39
2023-04-13T07:07:14.592Z,9.76
2023-04-13T07:12:17.768Z,9.86
2023-04-13T07:17:20.816Z,9.82
2023-04-13T07:22:25.217Z,9.95
2023-04-13T07:27:29.910Z,9.96
2023-04-13T07:32:33.193Z,9.58
2023-04-13T07:37:37.899Z,9.69
2023-04-13T07:42:42.111Z,9.88
2023-04-13T07:47:46.484Z,10.11
2023-04-13T07:52:50.838Z,10.45
2023-04-13T07:57:59.806Z,10.95
2023-04-13T08:03:03.144Z,11.39
2023-04-13T08:08:10.655Z,11.38
2023-04-13T08:13:13.778Z,10.68
2023-04-13T08:18:19.453Z,10.03
2023-04-13T08:23:24.110Z,9.99
2023-04-13T08:28:27.212Z,9.84
2023-04-13T08:33:30.229Z,10.40
2023-04-13T08:38:36.735Z,10.51
2023-04-13T08:43:41.714Z,10.70
2023-04-13T08:48:54.011Z,10.88
2023-04-13T08:54:03.048Z,10.98
2023-04-13T08:59:15.292Z,11.23
2023-04-13T09:04:22.929Z,11.17
2023-04-13T09:09:34.757Z,11.19
2023-04-13T09:14:38.666Z,11.28
2023-04-13T09:19:41.969Z,10.98
2023-04-13T09:24:46.302Z,10.88
2023-04-13T09:29:53.513Z,11.23
2023-04-13T09:35:04.848Z,11.59
2023-04-13T09:40:13.756Z,10.97
2023-04-13T09:45:16.650Z,11.14
2023-04-13T09:50:22.704Z,11.52
2023-04-13T09:55:27.898Z,11.40
2023-04-13T10:00:31.870Z,11.04
2023-04-13T10:05:47.348Z,11.74
2023-04-13T10:11:02.487Z,12.07
2023-04-13T10:16:19.695Z,12.24
2023-04-13T10:21:23.027Z,11.90
2023-04-13T10:26:32.900Z,13.40
2023-04-13T10:31:38.004Z,13.90
2023-04-13T10:36:43.035Z,12.62
2023-04-13T10:41:47.449Z,13.09
2023-04-13T10:46:52.020Z,13.27
2023-04-13T10:51:55.024Z,13.56
2023-04-13T10:57:00.649Z,13.08
2023-04-13T11:02:07.909Z,13.57
2023-04-13T11:07:17.096Z,13.55
2023-04-13T11:12:21.487Z,14.68
2023-04-13T11:17:24.684Z,14.09
2023-04-13T11:22:28.729Z,14.37
2023-04-13T11:27:33.083Z,14.15
2023-04-13T11:32:37.932Z,12.51
2023-04-13T11:37:42.955Z,12.69
2023-04-13T11:42:48.735Z,12.56
2023-04-13T11:47:52.608Z,13.65
2023-04-13T11:52:57.379Z,13.79
2023-04-13T11:58:08.964Z,13.43
2023-04-13T12:08:26.426Z,14.47
2023-04-13T12:13:46.836Z,12.57
2023-04-13T12:18:54.137Z,13.10
2023-04-13T12:23:59.774Z,12.52
2023-04-13T12:29:06.281Z,13.74
2023-04-13T12:34:09.537Z,14.20
2023-04-13T12:39:12.444Z,14.76
2023-04-13T12:44:17.149Z,15.24
2023-04-13T12:49:20.186Z,15.19
2023-04-13T12:54:23.267Z,14.76
2023-04-13T12:59:27.608Z,13.73
2023-04-13T13:04:30.825Z,13.73
2023-04-13T13:09:34.111Z,14.54
2023-04-13T13:14:38.346Z,14.49
2023-04-13T13:19:41.309Z,14.47
2023-04-13T13:24:44.209Z,14.78
2023-04-13T13:29:48.442Z,13.70
2023-04-13T13:34:51.562Z,14.32
2023-04-13T13:39:54.828Z,14.92
2023-04-13T13:44:59.176Z,15.16
2023-04-13T13:50:02.235Z,15.74
2023-04-13T13:55:11.479Z,14.88
2023-04-13T14:00:17.822Z,14.17
2023-04-13T14:05:21.966Z,13.51
2023-04-13T14:10:24.950Z,14.53
2023-04-13T14:15:29.345Z,13.17
2023-04-13T14:20:33.172Z,13.55
2023-04-13T14:25:36.676Z,13.50
2023-04-13T14:30:41.742Z,14.33
2023-04-13T14:35:44.633Z,14.07
2023-04-13T14:40:48.060Z,13.93
2023-04-13T14:45:55.026Z,13.69
2023-04-13T14:50:57.972Z,14.76
2023-04-13T14:56:00.920Z,13.60
2023-04-13T15:01:05.597Z,13.48
2023-04-13T15:06:10.075Z,14.36
2023-04-13T15:11:13.148Z,14.97
2023-04-13T15:16:17.507Z,14.24
2023-04-13T15:21:20.447Z,14.21
2023-04-13T15:26:24.299Z,13.65
2023-04-13T15:31:28.606Z,13.69
2023-04-13T15:36:31.490Z,13.23
2023-04-13T15:41:34.488Z,14.27
2023-04-13T15:46:40.128Z,14.42
2023-04-13T15:51:43.040Z,12.87
2023-04-13T15:56:45.989Z,12.96
2023-04-13T16:01:51.410Z,13.84
2023-04-13T16:07:09.385Z,13.97
2023-04-13T16:12:15.518Z,13.97
2023-04-13T16:17:30.916Z,12.78
2023-04-13T16:22:35.614Z,12.69
2023-04-13T16:27:40.056Z,12.71
2023-04-13T16:32:45.524Z,13.26
2023-04-13T16:37:48.468Z,12.76
2023-04-13T16:42:51.859Z,12.23
2023-04-13T16:47:56.606Z,12.14
2023-04-13T16:53:01.086Z,12.45
2023-04-13T16:58:04.011Z,12.57
2023-04-13T17:03:08.404Z,12.44
2023-04-13T17:08:11.414Z,12.37
2023-04-13T17:13:14.337Z,12.21
2023-04-13T17:18:18.622Z,12.36
2023-04-13T17:23:22.631Z,12.59
2023-04-13T17:28:26.320Z,12.52
2023-04-13T17:33:30.603Z,12.54
2023-04-13T17:38:33.520Z,12.33
2023-04-13T17:43:36.480Z,12.30
2023-04-13T17:48:41.111Z,12.28
2023-04-13T17:53:44.045Z,12.34
2023-04-13T17:58:46.929Z,12.22
2023-04-13T18:03:51.392Z,12.10
2023-04-13T18:08:54.577Z,11.91
2023-04-13T18:13:57.893Z,11.59
2023-04-13T18:19:02.328Z,11.44
2023-04-13T18:24:05.944Z,11.55
2023-04-13T18:29:09.605Z,11.62
2023-04-13T18:34:14.864Z,11.65
2023-04-13T18:39:19.228Z,11.72
2023-04-13T18:44:22.168Z,11.70
2023-04-13T18:49:27.104Z,11.66
2023-04-13T18:54:32.225Z,11.63
2023-04-13T18:59:35.249Z,11.47
2023-04-13T19:04:40.190Z,11.45
2023-04-13T19:09:43.183Z,11.29
2023-04-13T19:14:46.998Z,11.21
2023-04-13T19:19:51.421Z,11.14
2023-04-13T19:24:54.353Z,11.04
2023-04-13T19:29:57.395Z,10.96
2023-04-13T19:35:01.747Z,10.85
2023-04-13T19:40:09.516Z,10.81
2023-04-13T19:45:14.348Z,10.76
2023-04-13T19:50:18.942Z,10.57
2023-04-13T19:55:21.870Z,10.59
2023-04-13T20:00:28.028Z,10.41
2023-04-13T20:05:32.785Z,9.94
2023-04-13T20:10:35.854Z,10.09
2023-04-13T20:15:39.472Z,9.97
2023-04-13T20:20:44.320Z,10.08
2023-04-13T20:25:47.199Z,9.98
2023-04-13T20:30:50.126Z,9.98
2023-04-13T20:35:55.132Z,9.78
2023-04-13T20:40:59.237Z,9.81
2023-04-13T20:46:02.201Z,9.80
2023-04-13T20:51:08.026Z,9.70
2023-04-13T20:56:11.137Z,9.70
2023-04-13T21:01:14.120Z,9.48
2023-04-13T21:06:18.433Z,9.31
2023-04-13T21:11:21.428Z,9.31
2023-04-13T21:16:26.446Z,9.25
2023-04-13T21:21:32.786Z,9.27
2023-04-13T21:26:35.686Z,9.27
2023-04-13T21:31:38.580Z,9.02
2023-04-13T21:41:50.021Z,9.04
2023-04-13T21:46:52.914Z,9.16
2023-04-13T21:51:57.172Z,9.03
2023-04-13T21:57:00.220Z,8.86
2023-04-13T22:02:03.159Z,8.89
2023-04-13T22:07:07.490Z,8.98
2023-04-13T22:12:11.298Z,8.85
2023-04-13T22:17:14.625Z,8.90
2023-04-13T22:22:18.902Z,9.00
2023-04-13T22:27:21.855Z,8.87
2023-04-13T22:32:24.887Z,8.85
2023-04-13T22:37:32.918Z,8.78
2023-04-13T22:42:35.946Z,8.71
2023-04-13T22:47:38.842Z,8.79
2023-04-13T22:52:43.046Z,8.59
2023-04-13T22:57:45.961Z,8.70
2023-04-13T23:02:50.520Z,8.77
2023-04-13T23:07:55.392Z,8.80
2023-04-13T23:12:58.519Z,8.83
2023-04-13T23:18:02.712Z,8.69
2023-04-13T23:23:07.174Z,8.68
2023-04-13T23:28:10.137Z,8.54
2023-04-13T23:33:13.066Z,8.58
2023-04-13T23:38:17.352Z,8.62
2023-04-13T23:43:20.252Z,8.65
2023-04-13T23:48:25.402Z,8.74
2023-04-13T23:53:29.755Z,8.78
2023-04-13T23:58:32.690Z,8.78
